createdAt,value
2017-07-21T00:02:07.626Z,19.55
2017-07-21T00:04:34.017Z,20.03
2017-07-21T00:07:00.359Z,19.25
2017-07-21T00:09:26.693Z,18.57
2017-07-21T00:11:53.067Z,18.84
2017-07-21T00:14:19.421Z,19.80
2017-07-21T00:16:45.759Z,18.75
2017-07-21T00:19:12.113Z,19.52
2017-07-21T00:21:38.442Z,19.50
2017-07-21T00:24:04.787Z,18.24
2017-07-21T00:26:31.154Z,19.05
2017-07-21T00:28:57.485Z,18.52
2017-07-21T00:31:23.833Z,19.88
2017-07-21T00:33:50.164Z,19.40
2017-07-21T00:36:16.493Z,19.29
2017-07-21T00:38:42.833Z,19.87
2017-07-21T00:41:09.183Z,19.91
2017-07-21T00:43:35.552Z,18.76
2017-07-21T00:46:01.935Z,18.16
2017-07-21T00:48:28.287Z,18.43
2017-07-21T00:50:54.653Z,18.42
2017-07-21T00:53:20.983Z,18.01
2017-07-21T00:55:47.336Z,18.92
2017-07-21T00:58:13.675Z,18.71
2017-07-21T01:00:40.029Z,18.44
2017-07-21T01:03:06.347Z,17.52
2017-07-21T01:05:32.683Z,17.32
2017-07-21T01:07:59.027Z,18.73
2017-07-21T01:10:25.365Z,18.92
2017-07-21T01:12:51.757Z,18.52
2017-07-21T01:15:18.087Z,18.46
2017-07-21T01:17:44.446Z,18.77
2017-07-21T01:20:10.825Z,19.18
2017-07-21T01:22:37.153Z,18.44
2017-07-21T01:25:03.513Z,18.23
2017-07-21T01:27:29.875Z,17.75
2017-07-21T01:29:56.255Z,18.35
2017-07-21T01:32:22.581Z,18.37
2017-07-21T01:34:48.922Z,18.79
2017-07-21T01:37:15.279Z,18.95
2017-07-21T01:39:41.667Z,17.71
2017-07-21T01:42:08.034Z,16.96
2017-07-21T01:44:34.374Z,18.10
2017-07-21T01:47:00.786Z,18.91
2017-07-21T01:49:27.195Z,18.63
2017-07-21T01:51:53.655Z,18.80
2017-07-21T01:54:20.010Z,17.70
2017-07-21T01:56:46.390Z,18.22
2017-07-21T01:59:12.765Z,18.45
2017-07-21T02:01:39.159Z,18.12
2017-07-21T02:04:05.489Z,17.55
2017-07-21T02:06:31.846Z,17.74
2017-07-21T02:08:58.195Z,16.79
2017-07-21T02:11:24.525Z,17.44
2017-07-21T02:13:50.866Z,17.85
2017-07-21T02:16:17.199Z,17.59
2017-07-21T02:18:43.529Z,17.44
2017-07-21T02:21:09.865Z,17.41
2017-07-21T02:23:36.228Z,16.04
2017-07-21T02:26:02.573Z,15.52
2017-07-21T02:28:28.921Z,15.61
2017-07-21T02:30:55.267Z,16.09
2017-07-21T02:33:21.608Z,16.74
2017-07-21T02:35:47.929Z,16.36
2017-07-21T02:38:14.275Z,15.99
2017-07-21T02:40:40.624Z,15.32
2017-07-21T02:43:06.973Z,15.47
2017-07-21T02:45:33.304Z,15.87
2017-07-21T02:47:59.621Z,16.55
2017-07-21T02:50:25.987Z,16.96
2017-07-21T02:52:52.353Z,16.90
2017-07-21T02:55:18.703Z,16.25
2017-07-21T02:57:45.051Z,16.42
2017-07-21T03:00:11.438Z,16.41
2017-07-21T03:02:37.822Z,16.50
2017-07-21T03:05:04.160Z,17.46
2017-07-21T03:07:30.505Z,15.86
2017-07-21T03:09:56.882Z,15.21
2017-07-21T03:12:23.235Z,14.87
2017-07-21T03:14:49.589Z,14.76
2017-07-21T03:17:15.928Z,14.40
2017-07-21T03:19:42.304Z,14.10
2017-07-21T03:22:08.983Z,14.23
2017-07-21T03:24:35.335Z,15.33
2017-07-21T03:27:01.700Z,15.16
2017-07-21T03:29:28.028Z,15.35
2017-07-21T03:31:54.430Z,15.71
2017-07-21T03:34:20.780Z,16.22
2017-07-21T03:36:47.129Z,15.96
2017-07-21T03:39:13.463Z,15.81
2017-07-21T03:41:39.829Z,14.81
2017-07-21T03:44:06.178Z,14.85
2017-07-21T03:46:32.881Z,14.49
2017-07-21T03:48:59.214Z,14.31
2017-07-21T03:51:25.540Z,14.79
2017-07-21T03:53:51.875Z,14.91
2017-07-21T03:56:18.242Z,15.18
2017-07-21T03:58:44.597Z,14.80
2017-07-21T04:01:10.928Z,14.85
2017-07-21T04:03:37.273Z,14.38
2017-07-21T04:06:03.646Z,14.87
2017-07-21T04:08:30.003Z,14.78
2017-07-21T04:10:56.366Z,15.22
2017-07-21T04:13:22.729Z,15.29
2017-07-21T04:15:49.081Z,15.64
2017-07-21T04:18:15.434Z,15.65
2017-07-21T04:20:42.668Z,15.73
2017-07-21T04:23:08.995Z,15.14
2017-07-21T04:25:35.348Z,14.58
2017-07-21T04:28:01.684Z,14.21
2017-07-21T04:30:28.008Z,14.76
2017-07-21T04:32:54.362Z,15.35
2017-07-21T04:35:20.716Z,15.89
2017-07-21T04:37:47.111Z,16.11
2017-07-21T04:40:13.422Z,16.07
2017-07-21T04:42:39.773Z,15.44
2017-07-21T04:45:06.104Z,14.75
2017-07-21T04:47:32.431Z,15.24
2017-07-21T04:49:58.780Z,15.90
2017-07-21T04:52:25.177Z,16.44
2017-07-21T04:54:51.544Z,16.25
2017-07-21T04:57:17.907Z,15.55
2017-07-21T04:59:44.243Z,16.42
2017-07-21T05:02:10.614Z,16.46
2017-07-21T05:04:36.946Z,16.01
2017-07-21T05:07:03.318Z,16.35
2017-07-21T05:09:29.681Z,16.49
2017-07-21T05:11:56.031Z,16.55
2017-07-21T05:14:22.363Z,16.51
2017-07-21T05:16:48.704Z,15.63
2017-07-21T05:19:15.055Z,15.50
2017-07-21T05:21:41.396Z,15.71
2017-07-21T05:24:08.273Z,15.42
2017-07-21T05:26:34.592Z,14.99
2017-07-21T05:29:00.949Z,15.73
2017-07-21T05:31:27.302Z,15.30
2017-07-21T05:33:53.645Z,16.92
2017-07-21T05:36:20.000Z,17.29
2017-07-21T05:38:46.348Z,17.18
2017-07-21T05:41:12.695Z,17.22
2017-07-21T05:43:39.052Z,17.10
2017-07-21T05:46:05.400Z,17.04
2017-07-21T05:48:32.079Z,17.17
2017-07-21T05:50:58.418Z,17.38
2017-07-21T05:53:24.745Z,17.33
2017-07-21T05:55:51.109Z,17.35
2017-07-21T05:58:17.438Z,17.35
2017-07-21T06:00:43.769Z,17.28
2017-07-21T06:03:10.122Z,17.17
2017-07-21T06:05:36.475Z,17.41
2017-07-21T06:08:02.848Z,17.11
2017-07-21T06:10:29.222Z,17.34
2017-07-21T06:12:55.573Z,17.20
2017-07-21T06:15:21.956Z,17.11
2017-07-21T06:17:48.317Z,16.90
2017-07-21T06:20:14.690Z,16.91
2017-07-21T06:22:41.474Z,17.30
2017-07-21T06:25:07.823Z,17.37
2017-07-21T06:27:34.189Z,16.90
2017-07-21T06:30:00.504Z,16.79
2017-07-21T06:32:26.857Z,16.92
2017-07-21T06:34:53.214Z,16.84
2017-07-21T06:37:19.572Z,17.10
2017-07-21T06:39:45.912Z,17.44
2017-07-21T06:42:12.265Z,17.27
2017-07-21T06:44:38.611Z,17.64
2017-07-21T06:47:04.988Z,17.36
2017-07-21T06:49:31.331Z,17.62
2017-07-21T06:51:57.679Z,17.09
2017-07-21T06:54:24.043Z,17.26
2017-07-21T06:56:50.384Z,17.13
2017-07-21T06:59:16.772Z,17.15
2017-07-21T07:01:43.157Z,17.65
2017-07-21T07:04:09.513Z,18.28
2017-07-21T07:06:35.884Z,18.05
2017-07-21T07:09:02.267Z,17.75
2017-07-21T07:11:28.610Z,18.29
2017-07-21T07:13:54.948Z,17.86
2017-07-21T07:16:21.303Z,18.19
2017-07-21T07:18:47.663Z,17.71
2017-07-21T07:21:14.023Z,17.59
2017-07-21T07:23:40.406Z,18.36
2017-07-21T07:26:06.779Z,18.59
2017-07-21T07:28:33.102Z,18.10
2017-07-21T07:30:59.452Z,17.95
2017-07-21T07:33:25.829Z,18.15
2017-07-21T07:35:52.180Z,18.02
2017-07-21T07:38:18.520Z,17.82
2017-07-21T07:40:44.868Z,18.10
2017-07-21T07:43:11.186Z,18.47
2017-07-21T07:45:37.513Z,18.33
2017-07-21T07:48:03.824Z,18.99
2017-07-21T07:50:30.194Z,19.08
2017-07-21T07:52:56.538Z,19.09
2017-07-21T07:55:22.894Z,18.68
2017-07-21T07:57:49.275Z,18.39
2017-07-21T08:00:15.644Z,18.76
2017-07-21T08:02:41.988Z,18.39
2017-07-21T08:05:08.328Z,18.44
2017-07-21T08:07:34.716Z,18.66
2017-07-21T08:10:01.057Z,19.90
2017-07-21T08:12:27.417Z,20.07
2017-07-21T08:14:53.793Z,20.21
2017-07-21T08:17:20.145Z,19.50
2017-07-21T08:19:46.466Z,20.28
2017-07-21T08:22:12.822Z,20.20
2017-07-21T08:24:39.203Z,20.66
2017-07-21T08:27:05.606Z,20.71
2017-07-21T08:29:31.947Z,20.67
2017-07-21T08:31:58.294Z,20.57
2017-07-21T08:34:24.632Z,20.57
2017-07-21T08:36:50.972Z,19.91
2017-07-21T08:39:17.308Z,20.96
2017-07-21T08:41:43.674Z,21.35
2017-07-21T08:44:10.055Z,20.85
2017-07-21T08:46:36.442Z,20.66
2017-07-21T08:49:02.779Z,21.16
2017-07-21T08:51:29.107Z,21.22
2017-07-21T08:53:55.453Z,21.01
2017-07-21T08:56:21.813Z,21.37
2017-07-21T08:58:48.187Z,21.73
2017-07-21T09:01:14.524Z,22.46
2017-07-21T09:03:40.872Z,21.98
2017-07-21T09:06:07.256Z,22.71
2017-07-21T09:08:33.612Z,22.84
2017-07-21T09:10:59.944Z,22.50
2017-07-21T09:13:26.310Z,21.69
2017-07-21T09:15:52.657Z,22.45
2017-07-21T09:18:19.010Z,21.48
2017-07-21T09:20:45.402Z,21.92
2017-07-21T09:23:11.772Z,22.72
2017-07-21T09:25:38.103Z,23.12
2017-07-21T09:28:04.457Z,23.00
2017-07-21T09:30:30.835Z,23.67
2017-07-21T09:32:57.195Z,23.84
2017-07-21T09:35:23.525Z,24.09
2017-07-21T09:37:49.877Z,23.34
2017-07-21T09:40:16.241Z,23.11
2017-07-21T09:42:42.595Z,24.17
2017-07-21T09:45:09.004Z,24.25
2017-07-21T09:47:35.360Z,23.95
2017-07-21T09:50:01.734Z,22.88
2017-07-21T09:52:28.079Z,23.57
2017-07-21T09:54:54.440Z,24.76
2017-07-21T09:57:20.799Z,25.02
2017-07-21T09:59:47.164Z,24.12
2017-07-21T10:02:13.538Z,22.90
2017-07-21T10:04:39.789Z,24.21
2017-07-21T10:07:06.137Z,24.46
2017-07-21T10:09:32.497Z,25.16
2017-07-21T10:11:58.830Z,24.69
2017-07-21T10:14:25.179Z,25.14
2017-07-21T10:16:51.527Z,24.55
2017-07-21T10:19:17.862Z,23.26
2017-07-21T10:21:44.217Z,23.65
2017-07-21T10:24:10.572Z,25.60
2017-07-21T10:26:36.956Z,25.66
2017-07-21T10:29:03.305Z,23.96
2017-07-21T10:31:29.687Z,24.75
2017-07-21T10:33:56.051Z,25.56
2017-07-21T10:36:22.403Z,24.96
2017-07-21T10:38:48.771Z,25.88
2017-07-21T10:41:15.100Z,25.77
2017-07-21T10:43:41.467Z,25.74
2017-07-21T10:46:07.841Z,25.28
2017-07-21T10:48:34.183Z,24.99
2017-07-21T10:51:00.521Z,26.07
2017-07-21T10:53:26.877Z,24.09
2017-07-21T10:55:53.254Z,23.63
2017-07-21T10:58:19.625Z,24.79
2017-07-21T11:00:46.010Z,25.35
2017-07-21T11:03:12.359Z,26.74
2017-07-21T11:05:38.695Z,27.02
2017-07-21T11:08:05.055Z,27.10
2017-07-21T11:10:31.430Z,26.00
2017-07-21T11:12:57.774Z,26.78
2017-07-21T11:15:24.109Z,26.49
2017-07-21T11:17:50.482Z,27.37
2017-07-21T11:20:16.891Z,26.11
2017-07-21T11:22:43.257Z,27.31
2017-07-21T11:25:09.593Z,27.19
2017-07-21T11:27:35.932Z,26.19
2017-07-21T11:30:02.255Z,26.61
2017-07-21T11:32:28.573Z,28.11
2017-07-21T11:34:54.890Z,28.02
2017-07-21T11:37:21.210Z,27.82
2017-07-21T11:39:47.577Z,26.74
2017-07-21T11:42:13.942Z,26.35
2017-07-21T11:44:40.264Z,26.52
2017-07-21T11:47:06.612Z,26.65
2017-07-21T11:49:32.999Z,26.43
2017-07-21T11:51:59.332Z,27.07
2017-07-21T11:54:25.678Z,27.34
2017-07-21T11:56:52.002Z,28.04
2017-07-21T11:59:18.335Z,28.85
2017-07-21T12:01:44.698Z,28.60
2017-07-21T12:04:11.032Z,27.91
2017-07-21T12:06:37.371Z,27.63
2017-07-21T12:09:03.824Z,27.74
2017-07-21T12:11:30.163Z,27.65
2017-07-21T12:13:56.507Z,29.78
2017-07-21T12:16:22.854Z,28.84
2017-07-21T12:18:49.179Z,28.95
2017-07-21T12:21:15.553Z,29.98
2017-07-21T12:23:41.913Z,29.99
2017-07-21T12:26:08.271Z,30.05
2017-07-21T12:28:34.612Z,29.44
2017-07-21T12:31:00.944Z,29.76
2017-07-21T12:33:27.309Z,27.63
2017-07-21T12:35:53.675Z,27.18
2017-07-21T12:38:20.050Z,27.29
2017-07-21T12:40:46.364Z,28.03
2017-07-21T12:43:12.718Z,28.73
2017-07-21T12:45:39.052Z,27.66
2017-07-21T12:48:05.420Z,27.58
2017-07-21T12:50:31.763Z,27.86
2017-07-21T12:52:58.111Z,28.04
2017-07-21T12:55:24.440Z,27.28
2017-07-21T12:57:50.784Z,27.98
2017-07-21T13:00:17.135Z,28.35
2017-07-21T13:02:43.514Z,27.67
2017-07-21T13:05:09.918Z,27.74
2017-07-21T13:07:36.285Z,26.81
2017-07-21T13:10:02.665Z,27.80
2017-07-21T13:12:29.048Z,27.17
2017-07-21T13:14:55.387Z,26.53
2017-07-21T13:17:21.787Z,27.31
2017-07-21T13:19:48.176Z,27.63
2017-07-21T13:22:14.550Z,27.85
2017-07-21T13:24:41.331Z,28.28
2017-07-21T13:27:07.760Z,28.77
2017-07-21T13:29:34.099Z,28.87
2017-07-21T13:32:00.461Z,27.12
2017-07-21T13:34:26.813Z,28.09
2017-07-21T13:36:53.166Z,28.50
2017-07-21T13:39:19.541Z,28.37
2017-07-21T13:41:45.891Z,28.14
2017-07-21T13:44:12.308Z,27.60
2017-07-21T13:46:38.657Z,26.86
2017-07-21T13:49:05.018Z,28.66
2017-07-21T13:51:31.398Z,28.91
2017-07-21T13:53:57.811Z,28.99
2017-07-21T13:56:24.211Z,29.11
2017-07-21T13:58:50.567Z,28.46
2017-07-21T14:01:16.933Z,29.00
2017-07-21T14:03:43.277Z,28.46
2017-07-21T14:06:09.625Z,29.26
2017-07-21T14:08:35.969Z,29.01
2017-07-21T14:11:02.346Z,28.91
2017-07-21T14:13:28.690Z,29.55
2017-07-21T14:15:55.076Z,29.39
2017-07-21T14:18:21.484Z,28.67
2017-07-21T14:20:47.861Z,29.29
2017-07-21T14:23:14.260Z,29.85
2017-07-21T14:25:40.620Z,29.48
2017-07-21T14:28:06.972Z,29.13
2017-07-21T14:30:33.323Z,29.07
2017-07-21T14:32:59.693Z,28.77
2017-07-21T14:35:26.073Z,29.61
2017-07-21T14:37:52.443Z,29.74
2017-07-21T14:40:18.803Z,28.32
2017-07-21T14:42:45.149Z,28.33
2017-07-21T14:45:11.505Z,29.76
2017-07-21T14:47:37.903Z,28.39
2017-07-21T14:50:04.257Z,29.98
2017-07-21T14:52:30.689Z,30.31
2017-07-21T14:54:57.085Z,29.77
2017-07-21T14:57:23.476Z,29.88
2017-07-21T14:59:49.847Z,29.22
2017-07-21T15:02:16.222Z,28.92
2017-07-21T15:04:42.575Z,29.17
2017-07-21T15:07:08.917Z,29.25
2017-07-21T15:09:35.317Z,30.02
2017-07-21T15:12:01.674Z,30.02
2017-07-21T15:14:28.027Z,30.02
2017-07-21T15:16:54.413Z,30.32
2017-07-21T15:19:20.794Z,29.42
2017-07-21T15:21:47.171Z,30.03
2017-07-21T15:24:13.532Z,29.38
2017-07-21T15:26:39.886Z,29.68
2017-07-21T15:29:06.271Z,29.50
2017-07-21T15:31:32.650Z,29.36
2017-07-21T15:33:59.232Z,29.68
2017-07-21T15:36:26.024Z,29.50
2017-07-21T15:38:52.501Z,29.90
2017-07-21T15:41:18.879Z,30.26
2017-07-21T15:43:45.261Z,29.72
2017-07-21T15:46:11.631Z,30.67
2017-07-21T15:48:37.988Z,30.85
2017-07-21T15:51:04.348Z,30.58
2017-07-21T15:53:30.718Z,29.86
2017-07-21T15:55:57.086Z,29.18
2017-07-21T15:58:23.470Z,29.66
2017-07-21T16:00:50.317Z,29.88
2017-07-21T16:03:18.325Z,30.33
2017-07-21T16:05:44.775Z,30.80
2017-07-21T16:08:11.122Z,29.93
2017-07-21T16:10:37.491Z,29.48
2017-07-21T16:13:03.860Z,29.92
2017-07-21T16:15:30.234Z,29.48
2017-07-21T16:17:57.829Z,30.25
2017-07-21T16:20:24.214Z,29.90
2017-07-21T16:22:50.607Z,30.31
2017-07-21T16:25:16.966Z,29.97
2017-07-21T16:27:44.293Z,29.76
2017-07-21T16:30:10.751Z,30.05
2017-07-21T16:32:37.097Z,30.01
2017-07-21T16:35:03.864Z,29.94
2017-07-21T16:37:30.212Z,30.28
2017-07-21T16:52:58.200Z,29.84
2017-07-21T16:55:24.576Z,28.98
2017-07-21T16:57:50.936Z,28.02
2017-07-21T17:00:17.282Z,27.98
2017-07-21T17:02:43.635Z,28.25
2017-07-21T17:05:09.998Z,28.56
2017-07-21T17:07:36.331Z,28.13
2017-07-21T17:10:03.170Z,28.50
2017-07-21T17:12:29.533Z,28.16
2017-07-21T17:14:55.923Z,28.28
2017-07-21T17:17:22.273Z,28.53
2017-07-21T17:19:48.607Z,27.85
2017-07-21T17:22:14.954Z,27.34
2017-07-21T17:24:41.312Z,27.34
2017-07-21T17:27:07.694Z,27.26
2017-07-21T17:29:34.281Z,27.38
2017-07-21T17:32:01.090Z,27.62
2017-07-21T17:34:27.473Z,27.39
2017-07-21T17:36:53.828Z,27.77
2017-07-21T17:39:20.409Z,27.93
2017-07-21T17:41:46.801Z,27.87
2017-07-21T17:44:13.526Z,27.92
2017-07-21T17:46:39.932Z,27.69
2017-07-21T17:49:06.278Z,27.32
2017-07-21T17:51:32.663Z,26.75
2017-07-21T17:53:59.014Z,26.95
2017-07-21T17:56:25.380Z,27.10
2017-07-21T17:58:51.701Z,26.80
2017-07-21T18:01:18.051Z,26.37
2017-07-21T18:03:44.392Z,26.35
2017-07-21T18:06:11.122Z,26.64
2017-07-21T18:08:37.474Z,26.81
2017-07-21T18:11:03.804Z,26.96
2017-07-21T18:13:30.159Z,26.90
2017-07-21T18:15:56.520Z,26.87
2017-07-21T18:18:22.894Z,26.61
2017-07-21T18:20:49.257Z,26.60
2017-07-21T18:23:15.573Z,26.54
2017-07-21T18:25:41.935Z,26.19
2017-07-21T18:28:08.288Z,26.09
2017-07-21T18:30:34.635Z,26.29
2017-07-21T18:33:01.002Z,26.19
2017-07-21T18:35:27.351Z,26.46
2017-07-21T18:37:53.686Z,26.38
2017-07-21T18:40:20.069Z,26.05
2017-07-21T18:42:46.420Z,25.92
2017-07-21T18:45:12.786Z,26.13
2017-07-21T18:47:39.140Z,26.18
2017-07-21T18:50:05.525Z,26.14
2017-07-21T18:52:31.906Z,26.17
2017-07-21T18:54:58.287Z,26.03
2017-07-21T18:57:24.620Z,25.99
2017-07-21T18:59:50.995Z,25.64
2017-07-21T19:02:17.377Z,25.17
2017-07-21T19:04:43.727Z,25.04
2017-07-21T19:07:10.088Z,25.02
2017-07-21T19:09:36.427Z,25.04
2017-07-21T19:12:02.771Z,25.24
2017-07-21T19:14:29.161Z,25.48
2017-07-21T19:16:55.524Z,25.72
2017-07-21T19:19:21.881Z,25.71
2017-07-21T19:21:48.254Z,25.73
2017-07-21T19:24:14.623Z,25.75
2017-07-21T19:26:40.941Z,25.64
2017-07-21T19:29:07.297Z,25.57
2017-07-21T19:31:33.636Z,25.47
2017-07-21T19:33:59.967Z,25.40
2017-07-21T19:36:26.315Z,25.46
2017-07-21T19:38:52.662Z,25.48
2017-07-21T19:41:19.036Z,25.32
2017-07-21T19:43:45.366Z,25.39
2017-07-21T19:46:11.726Z,25.32
2017-07-21T19:48:38.072Z,25.19
2017-07-21T19:51:04.458Z,25.27
2017-07-21T19:53:30.825Z,25.20
2017-07-21T19:55:57.159Z,25.24
2017-07-21T19:58:23.515Z,25.11
2017-07-21T20:00:49.887Z,25.16
2017-07-21T20:03:16.269Z,25.15
2017-07-21T20:05:42.646Z,25.09
2017-07-21T20:08:09.019Z,24.99
2017-07-21T20:10:35.388Z,25.07
2017-07-21T20:13:01.737Z,25.02
2017-07-21T20:15:28.112Z,24.95
2017-07-21T20:17:54.565Z,24.78
2017-07-21T20:20:20.977Z,24.84
2017-07-21T20:22:47.332Z,24.78
2017-07-21T20:25:13.687Z,24.84
2017-07-21T20:27:40.062Z,24.75
2017-07-21T20:30:06.435Z,24.76
2017-07-21T20:32:32.820Z,24.70
2017-07-21T20:34:59.170Z,24.68
2017-07-21T20:37:25.535Z,24.62
2017-07-21T20:39:51.903Z,24.64
2017-07-21T20:42:18.298Z,24.61
2017-07-21T20:44:44.660Z,24.55
2017-07-21T20:47:11.028Z,24.49
2017-07-21T20:49:37.391Z,24.42
2017-07-21T20:52:03.748Z,24.35
2017-07-21T20:54:30.103Z,24.03
2017-07-21T20:56:56.452Z,24.18
2017-07-21T20:59:22.812Z,24.32
2017-07-21T21:01:49.340Z,24.34
2017-07-21T21:04:15.729Z,24.33
2017-07-21T21:06:42.072Z,24.34
2017-07-21T21:09:08.425Z,24.22
2017-07-21T21:11:34.943Z,24.26
2017-07-21T21:14:01.303Z,24.29
2017-07-21T21:16:28.001Z,24.15
2017-07-21T21:18:54.349Z,24.25
2017-07-21T21:21:20.732Z,24.23
2017-07-21T21:23:47.073Z,24.27
2017-07-21T21:26:13.441Z,24.37
2017-07-21T21:28:39.795Z,24.31
2017-07-21T21:31:06.152Z,24.16
2017-07-21T21:33:32.504Z,24.09
2017-07-21T21:35:58.837Z,24.00
2017-07-21T21:38:25.188Z,24.07
2017-07-21T21:40:51.593Z,24.15
2017-07-21T21:43:19.399Z,24.16
2017-07-21T21:45:45.776Z,24.13
2017-07-21T21:48:12.132Z,24.19
2017-07-21T21:50:38.461Z,24.16
2017-07-21T21:53:04.800Z,24.06
2017-07-21T21:55:31.172Z,24.13
2017-07-21T21:57:57.536Z,24.22
2017-07-21T22:00:23.897Z,23.96
2017-07-21T22:02:50.256Z,24.01
2017-07-21T22:05:16.602Z,24.03
2017-07-21T22:07:42.956Z,24.03
2017-07-21T22:10:09.311Z,24.08
2017-07-21T22:12:35.679Z,24.11
2017-07-21T22:15:02.138Z,23.91
2017-07-21T22:17:28.487Z,23.88
2017-07-21T22:19:54.878Z,23.91
2017-07-21T22:22:21.237Z,23.70
2017-07-21T22:24:47.594Z,23.86
2017-07-21T22:27:13.924Z,23.53
2017-07-21T22:29:40.302Z,23.71
2017-07-21T22:32:06.669Z,23.77
2017-07-21T22:34:33.098Z,23.80
2017-07-21T22:36:59.435Z,23.77
2017-07-21T22:39:25.817Z,23.77
2017-07-21T22:41:52.182Z,23.73
2017-07-21T22:44:18.515Z,23.80
2017-07-21T22:46:44.855Z,23.90
2017-07-21T22:49:11.207Z,23.76
2017-07-21T22:51:37.588Z,23.78
2017-07-21T22:54:03.941Z,23.73
2017-07-21T22:56:30.320Z,23.70
2017-07-21T22:58:56.657Z,23.79
2017-07-21T23:01:23.041Z,23.82
2017-07-21T23:03:49.373Z,23.86
2017-07-21T23:06:15.741Z,23.83
2017-07-21T23:08:42.104Z,23.53
2017-07-21T23:11:08.513Z,23.60
2017-07-21T23:13:34.905Z,23.63
2017-07-21T23:16:01.274Z,23.59
2017-07-21T23:18:27.605Z,23.63
2017-07-21T23:20:53.975Z,23.63
2017-07-21T23:23:20.328Z,23.56
2017-07-21T23:25:46.687Z,23.55
2017-07-21T23:28:13.033Z,23.47
2017-07-21T23:30:39.417Z,23.56
2017-07-21T23:33:05.759Z,23.46
2017-07-21T23:35:32.123Z,23.35
2017-07-21T23:37:58.494Z,23.44
2017-07-21T23:40:24.844Z,23.46
2017-07-21T23:42:51.245Z,23.50
2017-07-21T23:45:17.617Z,23.46
2017-07-21T23:47:43.976Z,23.44
2017-07-21T23:50:10.332Z,23.40
2017-07-21T23:52:36.680Z,23.36
2017-07-21T23:55:03.042Z,23.43
2017-07-21T23:57:29.378Z,23.14
2017-07-21T23:59:55.736Z,23.26
